Rosboro, Arkansas
Current Conditions -  °F | °C
As of 2:56 PM on Friday 19 Dec 2014 (Local Time) from KADF Reporting Station
Haze Haze  
Wind Chill: 41°   Ceiling: 800
Heat Index: 45°   Visibility: 6mi
Dew Point: 44°   Wind: 8mph
Humidity: 96%   Direction: 30°NNE
Pressure: 30.19"   Gusts: NA
Location:  34.2417°N, 93.3579°W
Report Text: KADF 192056Z AUTO 03007KT 6SM BR BKN008 07/07 A3019 RMK AO2 55004 60000 T00720066 SLP238
Loading
Personal Weather Stations






























Interactive Weather Map New forecast layout! Learn more

10-Day Weather Forecast

Advertisements
Track Severe Weather on mobile